sensor_id;sensor_type;location;lat;lon;timestamp;temperature;humidity
59208;DHT22;44977;53.132;6.408;2023-09-30T00:02:22;12.20;99.90
59208;DHT22;44977;53.132;6.408;2023-09-30T00:07:22;12.10;99.90
59208;DHT22;44977;53.132;6.408;2023-09-30T00:12:23;12.20;99.90
59208;DHT22;44977;53.132;6.408;2023-09-30T00:17:24;12.20;99.90
59208;DHT22;44977;53.132;6.408;2023-09-30T00:22:25;12.20;99.90
59208;DHT22;44977;53.132;6.408;2023-09-30T00:27:25;12.20;99.90
59208;DHT22;44977;53.132;6.408;2023-09-30T00:32:26;12.20;99.90
59208;DHT22;44977;53.132;6.408;2023-09-30T00:37:27;12.20;99.90
59208;DHT22;44977;53.132;6.408;2023-09-30T00:42:27;12.20;99.90
59208;DHT22;44977;53.132;6.408;2023-09-30T00:47:28;12.20;99.90
59208;DHT22;44977;53.132;6.408;2023-09-30T00:52:31;12.20;99.90
59208;DHT22;44977;53.132;6.408;2023-09-30T00:57:33;12.20;99.90
59208;DHT22;44977;53.132;6.408;2023-09-30T01:02:34;12.20;99.90
59208;DHT22;44977;53.132;6.408;2023-09-30T01:07:37;12.20;99.90
59208;DHT22;44977;53.132;6.408;2023-09-30T01:12:39;12.20;99.90
59208;DHT22;44977;53.132;6.408;2023-09-30T01:17:39;12.20;99.90
59208;DHT22;44977;53.132;6.408;2023-09-30T01:22:40;12.20;99.90
59208;DHT22;44977;53.132;6.408;2023-09-30T01:27:41;12.20;99.90
59208;DHT22;44977;53.132;6.408;2023-09-30T01:32:42;12.20;99.90
59208;DHT22;44977;53.132;6.408;2023-09-30T01:37:43;12.20;99.90
59208;DHT22;44977;53.132;6.408;2023-09-30T01:42:43;12.20;99.90
59208;DHT22;44977;53.132;6.408;2023-09-30T01:47:45;12.20;99.90
59208;DHT22;44977;53.132;6.408;2023-09-30T01:52:46;12.30;99.90
59208;DHT22;44977;53.132;6.408;2023-09-30T01:57:47;12.30;99.90
59208;DHT22;44977;53.132;6.408;2023-09-30T02:02:47;12.30;99.90
59208;DHT22;44977;53.132;6.408;2023-09-30T02:07:48;12.30;99.90
59208;DHT22;44977;53.132;6.408;2023-09-30T02:12:49;12.30;99.90
59208;DHT22;44977;53.132;6.408;2023-09-30T02:17:50;12.30;99.90
59208;DHT22;44977;53.132;6.408;2023-09-30T02:22:51;12.40;99.90
59208;DHT22;44977;53.132;6.408;2023-09-30T02:27:51;12.30;99.90
59208;DHT22;44977;53.132;6.408;2023-09-30T02:32:52;12.40;99.90
59208;DHT22;44977;53.132;6.408;2023-09-30T02:37:53;12.40;99.90
59208;DHT22;44977;53.132;6.408;2023-09-30T02:42:54;12.40;99.90
59208;DHT22;44977;53.132;6.408;2023-09-30T02:47:55;12.40;99.90
59208;DHT22;44977;53.132;6.408;2023-09-30T02:52:55;12.50;99.90
59208;DHT22;44977;53.132;6.408;2023-09-30T02:57:56;12.50;99.90
59208;DHT22;44977;53.132;6.408;2023-09-30T03:03:00;12.50;99.90
59208;DHT22;44977;53.132;6.408;2023-09-30T03:08:04;12.50;99.90
59208;DHT22;44977;53.132;6.408;2023-09-30T03:13:05;12.50;99.90
59208;DHT22;44977;53.132;6.408;2023-09-30T03:18:06;12.50;99.90
59208;DHT22;44977;53.132;6.408;2023-09-30T03:23:07;12.50;99.90
59208;DHT22;44977;53.132;6.408;2023-09-30T03:28:09;12.50;99.90
59208;DHT22;44977;53.132;6.408;2023-09-30T03:33:09;12.50;99.90
59208;DHT22;44977;53.132;6.408;2023-09-30T03:38:11;12.50;99.90
59208;DHT22;44977;53.132;6.408;2023-09-30T03:43:16;12.50;99.90
59208;DHT22;44977;53.132;6.408;2023-09-30T03:48:17;12.50;99.90
59208;DHT22;44977;53.132;6.408;2023-09-30T03:53:19;12.50;99.90
59208;DHT22;44977;53.132;6.408;2023-09-30T03:58:20;12.50;99.90
59208;DHT22;44977;53.132;6.408;2023-09-30T04:03:21;12.40;99.90
59208;DHT22;44977;53.132;6.408;2023-09-30T04:08:23;12.40;99.90
59208;DHT22;44977;53.132;6.408;2023-09-30T04:13:23;12.40;99.90
59208;DHT22;44977;53.132;6.408;2023-09-30T04:18:24;12.40;99.90
59208;DHT22;44977;53.132;6.408;2023-09-30T04:23:26;12.40;99.90
59208;DHT22;44977;53.132;6.408;2023-09-30T04:28:28;12.30;99.90
59208;DHT22;44977;53.132;6.408;2023-09-30T04:33:29;12.30;99.90
59208;DHT22;44977;53.132;6.408;2023-09-30T04:38:29;12.30;99.90
59208;DHT22;44977;53.132;6.408;2023-09-30T04:43:31;12.30;99.90
59208;DHT22;44977;53.132;6.408;2023-09-30T04:48:33;12.30;99.90
59208;DHT22;44977;53.132;6.408;2023-09-30T04:53:34;12.30;99.90
59208;DHT22;44977;53.132;6.408;2023-09-30T04:58:35;12.30;99.90
59208;DHT22;44977;53.132;6.408;2023-09-30T05:03:35;12.20;99.90
59208;DHT22;44977;53.132;6.408;2023-09-30T05:08:36;12.30;99.90
59208;DHT22;44977;53.132;6.408;2023-09-30T05:13:37;12.20;99.90
59208;DHT22;44977;53.132;6.408;2023-09-30T05:18:37;12.20;99.90
59208;DHT22;44977;53.132;6.408;2023-09-30T05:23:38;12.20;99.90
59208;DHT22;44977;53.132;6.408;2023-09-30T05:28:39;12.10;99.90
59208;DHT22;44977;53.132;6.408;2023-09-30T05:33:40;12.10;99.90
59208;DHT22;44977;53.132;6.408;2023-09-30T05:38:41;12.10;99.90
59208;DHT22;44977;53.132;6.408;2023-09-30T05:43:42;12.10;99.90
59208;DHT22;44977;53.132;6.408;2023-09-30T05:48:44;12.00;99.90
59208;DHT22;44977;53.132;6.408;2023-09-30T05:53:45;12.00;99.90
59208;DHT22;44977;53.132;6.408;2023-09-30T05:58:47;12.00;99.90
59208;DHT22;44977;53.132;6.408;2023-09-30T06:03:48;11.90;99.90
59208;DHT22;44977;53.132;6.408;2023-09-30T06:08:49;11.90;99.90
59208;DHT22;44977;53.132;6.408;2023-09-30T06:13:51;11.90;99.90
59208;DHT22;44977;53.132;6.408;2023-09-30T06:18:53;11.90;99.90
59208;DHT22;44977;53.132;6.408;2023-09-30T06:23:55;11.90;99.90
59208;DHT22;44977;53.132;6.408;2023-09-30T06:28:56;12.00;99.90
59208;DHT22;44977;53.132;6.408;2023-09-30T06:33:57;12.00;99.90
59208;DHT22;44977;53.132;6.408;2023-09-30T06:38:58;12.00;99.90
59208;DHT22;44977;53.132;6.408;2023-09-30T06:43:59;12.10;99.90
59208;DHT22;44977;53.132;6.408;2023-09-30T06:49:00;12.10;99.90
59208;DHT22;44977;53.132;6.408;2023-09-30T06:54:01;12.20;99.90
59208;DHT22;44977;53.132;6.408;2023-09-30T06:59:04;12.30;99.90
59208;DHT22;44977;53.132;6.408;2023-09-30T07:04:06;12.40;99.90
59208;DHT22;44977;53.132;6.408;2023-09-30T07:09:07;12.60;99.90
59208;DHT22;44977;53.132;6.408;2023-09-30T07:14:10;12.70;99.90
59208;DHT22;44977;53.132;6.408;2023-09-30T07:19:10;12.80;99.90
59208;DHT22;44977;53.132;6.408;2023-09-30T07:24:11;12.90;99.90
59208;DHT22;44977;53.132;6.408;2023-09-30T07:29:12;13.10;99.90
59208;DHT22;44977;53.132;6.408;2023-09-30T07:34:12;13.20;99.90
59208;DHT22;44977;53.132;6.408;2023-09-30T07:39:13;13.40;99.90
59208;DHT22;44977;53.132;6.408;2023-09-30T07:44:14;13.60;99.90
59208;DHT22;44977;53.132;6.408;2023-09-30T07:49:14;13.80;99.90
59208;DHT22;44977;53.132;6.408;2023-09-30T07:54:15;14.00;99.90
59208;DHT22;44977;53.132;6.408;2023-09-30T07:59:18;14.20;99.90
59208;DHT22;44977;53.132;6.408;2023-09-30T08:04:19;14.30;99.90
59208;DHT22;44977;53.132;6.408;2023-09-30T08:09:20;14.50;99.90
59208;DHT22;44977;53.132;6.408;2023-09-30T08:14:23;14.70;99.90
59208;DHT22;44977;53.132;6.408;2023-09-30T08:19:24;14.90;99.90
59208;DHT22;44977;53.132;6.408;2023-09-30T08:24:25;15.10;99.90
59208;DHT22;44977;53.132;6.408;2023-09-30T08:29:25;15.40;99.90
59208;DHT22;44977;53.132;6.408;2023-09-30T08:34:26;15.60;99.90
59208;DHT22;44977;53.132;6.408;2023-09-30T08:39:27;15.60;99.90
59208;DHT22;44977;53.132;6.408;2023-09-30T08:44:29;15.90;99.90
59208;DHT22;44977;53.132;6.408;2023-09-30T08:49:37;16.10;99.90
59208;DHT22;44977;53.132;6.408;2023-09-30T08:54:39;16.30;99.90
59208;DHT22;44977;53.132;6.408;2023-09-30T08:59:41;16.50;99.90
59208;DHT22;44977;53.132;6.408;2023-09-30T09:04:42;16.70;99.90
59208;DHT22;44977;53.132;6.408;2023-09-30T09:10:09;16.80;99.90
59208;DHT22;44977;53.132;6.408;2023-09-30T09:15:39;17.00;99.90
59208;DHT22;44977;53.132;6.408;2023-09-30T09:20:41;17.20;99.90
59208;DHT22;44977;53.132;6.408;2023-09-30T09:25:42;17.50;99.90
59208;DHT22;44977;53.132;6.408;2023-09-30T09:30:42;17.70;99.90
59208;DHT22;44977;53.132;6.408;2023-09-30T09:35:48;18.00;99.90
59208;DHT22;44977;53.132;6.408;2023-09-30T09:40:48;18.10;99.90
59208;DHT22;44977;53.132;6.408;2023-09-30T09:45:49;18.20;99.90
59208;DHT22;44977;53.132;6.408;2023-09-30T09:50:51;18.50;99.90
59208;DHT22;44977;53.132;6.408;2023-09-30T09:55:52;18.60;99.90
59208;DHT22;44977;53.132;6.408;2023-09-30T10:00:55;18.80;99.90
59208;DHT22;44977;53.132;6.408;2023-09-30T10:05:58;18.90;99.90
59208;DHT22;44977;53.132;6.408;2023-09-30T10:10:59;19.10;99.90
59208;DHT22;44977;53.132;6.408;2023-09-30T10:16:00;19.10;99.90
59208;DHT22;44977;53.132;6.408;2023-09-30T10:21:07;19.10;99.90
59208;DHT22;44977;53.132;6.408;2023-09-30T10:31:16;18.80;99.90
59208;DHT22;44977;53.132;6.408;2023-09-30T10:36:38;18.60;99.90
59208;DHT22;44977;53.132;6.408;2023-09-30T10:46:46;18.30;99.90
59208;DHT22;44977;53.132;6.408;2023-09-30T10:51:49;18.30;99.90
59208;DHT22;44977;53.132;6.408;2023-09-30T10:56:50;18.60;99.90
59208;DHT22;44977;53.132;6.408;2023-09-30T11:01:51;18.80;99.90
59208;DHT22;44977;53.132;6.408;2023-09-30T11:06:52;19.10;99.90
59208;DHT22;44977;53.132;6.408;2023-09-30T11:11:53;19.20;99.90
59208;DHT22;44977;53.132;6.408;2023-09-30T11:16:58;19.40;99.90
59208;DHT22;44977;53.132;6.408;2023-09-30T11:22:00;19.40;99.90
59208;DHT22;44977;53.132;6.408;2023-09-30T11:27:00;19.30;99.90
59208;DHT22;44977;53.132;6.408;2023-09-30T11:32:02;19.10;99.90
59208;DHT22;44977;53.132;6.408;2023-09-30T11:37:03;19.00;99.90
59208;DHT22;44977;53.132;6.408;2023-09-30T11:42:15;18.70;99.90
59208;DHT22;44977;53.132;6.408;2023-09-30T11:47:29;18.60;99.90
59208;DHT22;44977;53.132;6.408;2023-09-30T11:52:34;18.60;99.90
59208;DHT22;44977;53.132;6.408;2023-09-30T11:57:36;18.70;99.90
59208;DHT22;44977;53.132;6.408;2023-09-30T12:02:37;18.80;99.90
59208;DHT22;44977;53.132;6.408;2023-09-30T12:07:40;19.00;99.90
59208;DHT22;44977;53.132;6.408;2023-09-30T12:12:42;19.10;99.90
59208;DHT22;44977;53.132;6.408;2023-09-30T12:17:43;19.40;99.90
59208;DHT22;44977;53.132;6.408;2023-09-30T12:22:43;19.50;99.90
59208;DHT22;44977;53.132;6.408;2023-09-30T12:27:44;19.60;99.90
59208;DHT22;44977;53.132;6.408;2023-09-30T12:32:46;19.60;99.90
59208;DHT22;44977;53.132;6.408;2023-09-30T12:37:47;19.40;99.90
59208;DHT22;44977;53.132;6.408;2023-09-30T12:42:48;19.40;99.90
59208;DHT22;44977;53.132;6.408;2023-09-30T12:47:49;19.40;99.90
59208;DHT22;44977;53.132;6.408;2023-09-30T12:52:53;19.50;99.90
59208;DHT22;44977;53.132;6.408;2023-09-30T12:57:53;19.40;99.90
59208;DHT22;44977;53.132;6.408;2023-09-30T13:02:54;19.50;99.90
59208;DHT22;44977;53.132;6.408;2023-09-30T13:07:55;19.50;99.90
59208;DHT22;44977;53.132;6.408;2023-09-30T13:12:56;19.50;99.90
59208;DHT22;44977;53.132;6.408;2023-09-30T13:17:58;19.60;99.90
59208;DHT22;44977;53.132;6.408;2023-09-30T13:22:59;19.60;99.90
59208;DHT22;44977;53.132;6.408;2023-09-30T13:28:01;19.50;99.90
59208;DHT22;44977;53.132;6.408;2023-09-30T13:33:02;19.50;99.90
59208;DHT22;44977;53.132;6.408;2023-09-30T13:38:03;19.40;99.90
59208;DHT22;44977;53.132;6.408;2023-09-30T13:43:04;19.50;99.90
59208;DHT22;44977;53.132;6.408;2023-09-30T13:48:05;19.50;99.90
59208;DHT22;44977;53.132;6.408;2023-09-30T13:53:06;19.50;99.90
59208;DHT22;44977;53.132;6.408;2023-09-30T13:58:07;19.60;99.90
59208;DHT22;44977;53.132;6.408;2023-09-30T14:03:08;19.60;99.90
59208;DHT22;44977;53.132;6.408;2023-09-30T14:08:09;19.60;99.90
59208;DHT22;44977;53.132;6.408;2023-09-30T14:13:10;19.60;99.90
59208;DHT22;44977;53.132;6.408;2023-09-30T14:18:10;19.50;99.90
59208;DHT22;44977;53.132;6.408;2023-09-30T14:23:12;19.50;99.90
59208;DHT22;44977;53.132;6.408;2023-09-30T14:28:12;19.40;99.90
59208;DHT22;44977;53.132;6.408;2023-09-30T14:33:14;19.40;99.90
59208;DHT22;44977;53.132;6.408;2023-09-30T14:38:14;19.30;99.90
59208;DHT22;44977;53.132;6.408;2023-09-30T14:43:15;19.30;99.90
59208;DHT22;44977;53.132;6.408;2023-09-30T14:48:16;19.30;99.90
59208;DHT22;44977;53.132;6.408;2023-09-30T14:53:17;19.30;99.90
59208;DHT22;44977;53.132;6.408;2023-09-30T14:58:17;19.30;99.90
59208;DHT22;44977;53.132;6.408;2023-09-30T15:03:19;19.30;99.90
59208;DHT22;44977;53.132;6.408;2023-09-30T15:08:23;19.20;99.90
59208;DHT22;44977;53.132;6.408;2023-09-30T15:13:23;19.20;99.90
59208;DHT22;44977;53.132;6.408;2023-09-30T15:18:24;19.20;99.90
59208;DHT22;44977;53.132;6.408;2023-09-30T15:23:25;19.10;99.90
59208;DHT22;44977;53.132;6.408;2023-09-30T15:28:25;19.10;99.90
59208;DHT22;44977;53.132;6.408;2023-09-30T15:33:28;19.00;99.90
59208;DHT22;44977;53.132;6.408;2023-09-30T15:38:28;18.90;99.90
59208;DHT22;44977;53.132;6.408;2023-09-30T15:43:32;18.80;99.90
59208;DHT22;44977;53.132;6.408;2023-09-30T15:48:33;18.80;99.90
59208;DHT22;44977;53.132;6.408;2023-09-30T15:53:34;18.70;99.90
59208;DHT22;44977;53.132;6.408;2023-09-30T15:58:36;18.60;99.90
59208;DHT22;44977;53.132;6.408;2023-09-30T16:03:37;18.50;99.90
59208;DHT22;44977;53.132;6.408;2023-09-30T16:08:37;18.50;99.90
59208;DHT22;44977;53.132;6.408;2023-09-30T16:13:38;18.30;99.90
59208;DHT22;44977;53.132;6.408;2023-09-30T16:18:45;18.30;99.90
59208;DHT22;44977;53.132;6.408;2023-09-30T16:23:45;18.30;99.90
59208;DHT22;44977;53.132;6.408;2023-09-30T16:28:46;18.20;99.90
59208;DHT22;44977;53.132;6.408;2023-09-30T16:33:47;18.20;99.90
59208;DHT22;44977;53.132;6.408;2023-09-30T16:38:47;18.10;99.90
59208;DHT22;44977;53.132;6.408;2023-09-30T16:43:48;18.10;99.90
59208;DHT22;44977;53.132;6.408;2023-09-30T16:48:49;18.00;99.90
59208;DHT22;44977;53.132;6.408;2023-09-30T16:53:49;17.90;99.90
59208;DHT22;44977;53.132;6.408;2023-09-30T16:58:50;17.80;99.90
59208;DHT22;44977;53.132;6.408;2023-09-30T17:03:51;17.80;99.90
59208;DHT22;44977;53.132;6.408;2023-09-30T17:08:51;17.70;99.90
59208;DHT22;44977;53.132;6.408;2023-09-30T17:13:53;17.60;99.90
59208;DHT22;44977;53.132;6.408;2023-09-30T17:18:53;17.50;99.90
59208;DHT22;44977;53.132;6.408;2023-09-30T17:23:54;17.40;99.90
59208;DHT22;44977;53.132;6.408;2023-09-30T17:28:55;17.30;99.90
59208;DHT22;44977;53.132;6.408;2023-09-30T17:33:56;17.20;99.90
59208;DHT22;44977;53.132;6.408;2023-09-30T17:38:57;17.20;99.90
59208;DHT22;44977;53.132;6.408;2023-09-30T17:43:58;17.10;99.90
59208;DHT22;44977;53.132;6.408;2023-09-30T17:48:59;17.10;99.90
59208;DHT22;44977;53.132;6.408;2023-09-30T17:54:00;17.00;99.90
59208;DHT22;44977;53.132;6.408;2023-09-30T17:59:00;17.00;99.90
59208;DHT22;44977;53.132;6.408;2023-09-30T18:04:02;16.90;99.90
59208;DHT22;44977;53.132;6.408;2023-09-30T18:09:03;16.90;99.90
59208;DHT22;44977;53.132;6.408;2023-09-30T18:14:04;16.80;99.90
59208;DHT22;44977;53.132;6.408;2023-09-30T18:19:07;16.70;99.90
59208;DHT22;44977;53.132;6.408;2023-09-30T18:24:08;16.70;99.90
59208;DHT22;44977;53.132;6.408;2023-09-30T18:29:09;16.70;99.90
59208;DHT22;44977;53.132;6.408;2023-09-30T18:34:10;16.60;99.90
59208;DHT22;44977;53.132;6.408;2023-09-30T18:39:11;16.60;99.90
59208;DHT22;44977;53.132;6.408;2023-09-30T18:44:12;16.50;99.90
59208;DHT22;44977;53.132;6.408;2023-09-30T18:49:13;16.50;99.90
59208;DHT22;44977;53.132;6.408;2023-09-30T18:54:13;16.50;99.90
59208;DHT22;44977;53.132;6.408;2023-09-30T18:59:15;16.40;99.90
59208;DHT22;44977;53.132;6.408;2023-09-30T19:04:21;16.40;99.90
59208;DHT22;44977;53.132;6.408;2023-09-30T19:09:21;16.40;99.90
59208;DHT22;44977;53.132;6.408;2023-09-30T19:14:22;16.30;99.90
59208;DHT22;44977;53.132;6.408;2023-09-30T19:19:24;16.30;99.90
59208;DHT22;44977;53.132;6.408;2023-09-30T19:24:24;16.30;99.90
59208;DHT22;44977;53.132;6.408;2023-09-30T19:29:26;16.30;99.90
59208;DHT22;44977;53.132;6.408;2023-09-30T19:34:26;16.30;99.90
59208;DHT22;44977;53.132;6.408;2023-09-30T19:39:28;16.20;99.90
59208;DHT22;44977;53.132;6.408;2023-09-30T19:44:29;16.30;99.90
59208;DHT22;44977;53.132;6.408;2023-09-30T19:49:30;16.20;99.90
59208;DHT22;44977;53.132;6.408;2023-09-30T19:54:31;16.20;99.90
59208;DHT22;44977;53.132;6.408;2023-09-30T19:59:31;16.20;99.90
59208;DHT22;44977;53.132;6.408;2023-09-30T20:04:32;16.20;99.90
59208;DHT22;44977;53.132;6.408;2023-09-30T20:09:33;16.10;99.90
59208;DHT22;44977;53.132;6.408;2023-09-30T20:14:35;16.10;99.90
59208;DHT22;44977;53.132;6.408;2023-09-30T20:19:36;16.10;99.90
59208;DHT22;44977;53.132;6.408;2023-09-30T20:24:37;16.10;99.90
59208;DHT22;44977;53.132;6.408;2023-09-30T20:29:38;16.00;99.90
59208;DHT22;44977;53.132;6.408;2023-09-30T20:34:39;16.00;99.90
59208;DHT22;44977;53.132;6.408;2023-09-30T20:39:39;16.00;99.90
59208;DHT22;44977;53.132;6.408;2023-09-30T20:44:40;16.00;99.90
59208;DHT22;44977;53.132;6.408;2023-09-30T20:49:41;16.00;99.90
59208;DHT22;44977;53.132;6.408;2023-09-30T20:54:41;15.90;99.90
59208;DHT22;44977;53.132;6.408;2023-09-30T20:59:42;15.90;99.90
59208;DHT22;44977;53.132;6.408;2023-09-30T21:04:44;15.90;99.90
59208;DHT22;44977;53.132;6.408;2023-09-30T21:09:44;15.90;99.90
59208;DHT22;44977;53.132;6.408;2023-09-30T21:14:46;15.90;99.90
59208;DHT22;44977;53.132;6.408;2023-09-30T21:19:46;15.80;99.90
59208;DHT22;44977;53.132;6.408;2023-09-30T21:24:47;15.80;99.90
59208;DHT22;44977;53.132;6.408;2023-09-30T21:29:48;15.70;99.90
59208;DHT22;44977;53.132;6.408;2023-09-30T21:34:49;15.70;99.90
59208;DHT22;44977;53.132;6.408;2023-09-30T21:39:49;15.70;99.90
59208;DHT22;44977;53.132;6.408;2023-09-30T21:44:50;15.70;99.90
59208;DHT22;44977;53.132;6.408;2023-09-30T21:49:52;15.70;99.90
59208;DHT22;44977;53.132;6.408;2023-09-30T21:54:52;15.70;99.90
59208;DHT22;44977;53.132;6.408;2023-09-30T21:59:53;15.70;99.90
59208;DHT22;44977;53.132;6.408;2023-09-30T22:04:54;15.60;99.90
59208;DHT22;44977;53.132;6.408;2023-09-30T22:09:56;15.60;99.90
59208;DHT22;44977;53.132;6.408;2023-09-30T22:14:56;15.60;99.90
59208;DHT22;44977;53.132;6.408;2023-09-30T22:19:57;15.60;99.90
59208;DHT22;44977;53.132;6.408;2023-09-30T22:24:58;15.50;99.90
59208;DHT22;44977;53.132;6.408;2023-09-30T22:29:59;15.60;99.90
59208;DHT22;44977;53.132;6.408;2023-09-30T22:35:00;15.50;99.90
59208;DHT22;44977;53.132;6.408;2023-09-30T22:40:01;15.50;99.90
59208;DHT22;44977;53.132;6.408;2023-09-30T22:45:04;15.40;99.90
59208;DHT22;44977;53.132;6.408;2023-09-30T22:50:06;15.40;99.90
59208;DHT22;44977;53.132;6.408;2023-09-30T22:55:21;15.40;99.90
59208;DHT22;44977;53.132;6.408;2023-09-30T23:00:23;15.40;99.90
59208;DHT22;44977;53.132;6.408;2023-09-30T23:05:27;15.40;99.90
59208;DHT22;44977;53.132;6.408;2023-09-30T23:10:28;15.40;99.90
59208;DHT22;44977;53.132;6.408;2023-09-30T23:15:29;15.40;99.90
59208;DHT22;44977;53.132;6.408;2023-09-30T23:20:30;15.30;99.90
59208;DHT22;44977;53.132;6.408;2023-09-30T23:25:31;15.30;99.90
59208;DHT22;44977;53.132;6.408;2023-09-30T23:30:35;15.30;99.90
59208;DHT22;44977;53.132;6.408;2023-09-30T23:35:35;15.30;99.90
59208;DHT22;44977;53.132;6.408;2023-09-30T23:40:37;15.30;99.90
59208;DHT22;44977;53.132;6.408;2023-09-30T23:45:38;15.20;99.90
59208;DHT22;44977;53.132;6.408;2023-09-30T23:50:38;15.20;99.90
59208;DHT22;44977;53.132;6.408;2023-09-30T23:55:41;15.20;99.90
